North Portal, Canada
Current Conditions -  °F | °C
As of 2:00 AM on Thursday 27 Nov 2014 (Local Time) from CYEN Reporting Station
Few Clouds Few Clouds  
Wind Chill: -32°   Ceiling: Unl
Heat Index: -15°   Visibility: 15mi
Dew Point: -18°   Wind: 8mph
Humidity: 84%   Direction: 110°ESE
Pressure: 30.33"   Gusts: NA
Location:  49°N, 102.55°W
Report Text: CYEN 270800Z 11007KT 15SM FEW030 FEW230 M26/M28 A3033 RMKSC1CI0 FROIN SLP335
Loading
Personal Weather Stations






























Interactive Weather Map New forecast layout! Learn more

10-Day Weather Forecast

Advertisements
Track Severe Weather on mobile